Time;durP1;ratioP1;P1;durP2;ratioP2;P2;SDS_P1;SDS_P2;PMS_P1;PMS_P2;Temp;Humidity;BMP_temperature;BMP_pressure;BME280_temperature;BME280_humidity;BME280_pressure;Samples;Min_cycle;Max_cycle;Signal;HPM_P1;HPM_P2
2024/04/07 00:01:52;;;;;;;2.55;1.02;;;;;;;;;;5124251;27;20043;-75
2024/04/07 00:04:20;;;;;;;4.13;0.98;;;;;;;;;;5125321;27;20512;-73
2024/04/07 00:06:50;;;;;;;3.80;0.47;;;;;;;;;;5123988;27;20401;-74
2024/04/07 00:09:18;;;;;;;5.13;0.47;;;;;;;;;;5123748;27;20051;-74
2024/04/07 00:11:47;;;;;;;2.72;0.65;;;;;;;;;;5123793;27;20662;-71
2024/04/07 00:14:15;;;;;;;3.38;0.60;;;;;;;;;;5106641;27;20508;-73
2024/04/07 00:16:45;;;;;;;2.30;0.55;;;;;;;;;;5122890;27;20047;-74
2024/04/07 00:19:14;;;;;;;3.72;0.70;;;;;;;;;;5123043;27;20043;-74
2024/04/07 00:21:44;;;;;;;3.60;0.73;;;;;;;;;;5124130;27;20055;-73
2024/04/07 00:24:12;;;;;;;3.83;0.88;;;;;;;;;;5122668;27;20062;-78
2024/04/07 00:26:41;;;;;;;3.65;0.60;;;;;;;;;;5122992;27;20614;-72
2024/04/07 00:29:09;;;;;;;8.07;0.70;;;;;;;;;;5106363;27;20058;-72
2024/04/07 00:31:38;;;;;;;6.30;1.20;;;;;;;;;;5122805;27;20043;-74
2024/04/07 00:34:07;;;;;;;2.50;0.60;;;;;;;;;;5123345;27;20413;-74
2024/04/07 00:36:36;;;;;;;3.50;0.70;;;;;;;;;;5106195;27;20047;-74
2024/04/07 00:39:04;;;;;;;3.45;0.63;;;;;;;;;;5122459;27;20047;-73
2024/04/07 00:41:32;;;;;;;7.00;0.50;;;;;;;;;;5123299;27;20520;-72
2024/04/07 00:44:01;;;;;;;4.63;0.82;;;;;;;;;;5122848;27;20039;-74
2024/04/07 00:46:30;;;;;;;2.45;0.30;;;;;;;;;;5124379;27;20054;-72
2024/04/07 00:48:58;;;;;;;7.45;0.90;;;;;;;;;;5123067;27;20405;-72
2024/04/07 00:51:27;;;;;;;6.03;0.65;;;;;;;;;;5123409;27;20055;-72
2024/04/07 00:53:57;;;;;;;2.10;0.60;;;;;;;;;;5122415;27;20043;-74
2024/04/07 00:56:26;;;;;;;4.65;0.60;;;;;;;;;;5105066;27;20051;-73
2024/04/07 00:58:55;;;;;;;2.10;0.43;;;;;;;;;;5122264;27;20042;-74
2024/04/07 01:01:23;;;;;;;;;;;;;;;;;;5122520;27;20519;-74
2024/04/07 01:03:52;;;;;;;3.50;0.60;;;;;;;;;;5121778;27;19927;-74
2024/04/07 01:06:20;;;;;;;6.55;0.70;;;;;;;;;;5122607;27;20038;-75
2024/04/07 01:08:49;;;;;;;3.33;0.82;;;;;;;;;;5121790;27;20066;-74
2024/04/07 01:11:17;;;;;;;4.43;0.55;;;;;;;;;;5122199;27;20039;-73
2024/04/07 01:13:46;;;;;;;6.40;0.60;;;;;;;;;;5122814;27;20047;-73
2024/04/07 01:16:14;;;;;;;6.07;0.70;;;;;;;;;;5121937;27;20040;-75
2024/04/07 01:18:43;;;;;;;9.60;1.30;;;;;;;;;;5121720;27;20043;-75
2024/04/07 01:21:12;;;;;;;6.03;0.70;;;;;;;;;;5122735;27;20605;-73
2024/04/07 01:23:40;;;;;;;4.45;0.50;;;;;;;;;;5121752;27;20039;-74
2024/04/07 01:26:09;;;;;;;3.17;0.60;;;;;;;;;;5104492;27;20047;-72
2024/04/07 01:28:37;;;;;;;4.97;0.60;;;;;;;;;;5121943;27;20425;-74
2024/04/07 01:31:07;;;;;;;6.07;0.80;;;;;;;;;;5122214;27;20039;-74
2024/04/07 01:33:36;;;;;;;8.18;0.50;;;;;;;;;;5088192;27;20051;-74
2024/04/07 01:36:05;;;;;;;2.25;0.73;;;;;;;;;;5121950;27;20385;-72
2024/04/07 01:38:33;;;;;;;3.80;0.60;;;;;;;;;;5122807;27;20043;-72
2024/04/07 01:41:02;;;;;;;5.40;0.70;;;;;;;;;;5121913;27;20035;-74
2024/04/07 01:43:30;;;;;;;0.85;0.38;;;;;;;;;;5121833;27;20039;-72
2024/04/07 01:45:59;;;;;;;4.93;0.60;;;;;;;;;;5121305;27;20490;-73
2024/04/07 01:48:27;;;;;;;2.25;0.50;;;;;;;;;;5121332;27;20035;-74
2024/04/07 01:50:56;;;;;;;5.78;1.05;;;;;;;;;;5121676;27;20043;-73
2024/04/07 01:53:24;;;;;;;1.38;0.30;;;;;;;;;;5121688;27;20497;-74
2024/04/07 01:55:53;;;;;;;;;;;;;;;;;;5122747;27;20050;-74
2024/04/07 01:58:21;;;;;;;5.00;0.60;;;;;;;;;;5104887;27;19928;-74
2024/04/07 02:00:50;;;;;;;5.18;0.60;;;;;;;;;;5104298;28;20080;-75
2024/04/07 02:03:19;;;;;;;2.20;0.20;;;;;;;;;;5120974;27;20043;-73
2024/04/07 02:05:47;;;;;;;9.63;0.77;;;;;;;;;;5120505;27;20055;-74
2024/04/07 02:08:16;;;;;;;4.07;0.65;;;;;;;;;;5121586;28;20058;-74
2024/04/07 02:10:51;;;;;;;6.85;0.55;;;;;;;;;;5120684;28;20497;-73
2024/04/07 02:13:20;;;;;;;3.33;0.50;;;;;;;;;;5121901;27;20513;-74
2024/04/07 02:15:49;;;;;;;4.53;0.47;;;;;;;;;;5124193;27;20043;-73
2024/04/07 02:18:17;;;;;;;8.90;0.52;;;;;;;;;;5126306;27;20047;-73
2024/04/07 02:20:52;;;;;;;1.05;0.30;;;;;;;;;;5109213;27;20058;-75
2024/04/07 02:23:21;;;;;;;5.55;0.52;;;;;;;;;;5125836;27;20051;-74
2024/04/07 02:25:49;;;;;;;3.38;0.45;;;;;;;;;;5125659;27;20055;-77
2024/04/07 02:28:18;;;;;;;4.72;0.50;;;;;;;;;;5125468;27;20043;-73
2024/04/07 02:30:46;;;;;;;7.80;0.63;;;;;;;;;;5125228;27;20043;-76
2024/04/07 02:33:15;;;;;;;1.98;0.50;;;;;;;;;;5125072;27;20053;-73
2024/04/07 02:35:45;;;;;;;2.45;0.40;;;;;;;;;;5125742;27;20047;-75
2024/04/07 02:38:13;;;;;;;5.68;0.40;;;;;;;;;;5124987;27;20050;-74
2024/04/07 02:40:42;;;;;;;2.75;0.40;;;;;;;;;;5125226;27;20047;-75
2024/04/07 02:43:10;;;;;;;3.05;0.50;;;;;;;;;;5125516;27;20065;-74
2024/04/07 02:48:27;;;;;;;2.90;0.45;;;;;;;;;;5124999;27;20043;-74
2024/04/07 02:50:57;;;;;;;2.10;0.52;;;;;;;;;;5125419;27;20050;-74
2024/04/07 02:53:26;;;;;;;1.80;0.32;;;;;;;;;;5125184;27;20046;-74
2024/04/07 02:55:54;;;;;;;3.22;0.50;;;;;;;;;;5125528;27;20039;-72
2024/04/07 02:58:23;;;;;;;6.50;0.60;;;;;;;;;;5125172;27;20039;-74
2024/04/07 03:00:52;;;;;;;7.22;0.80;;;;;;;;;;5125956;27;20039;-75
2024/04/07 03:03:20;;;;;;;2.83;0.50;;;;;;;;;;5125341;27;20039;-75
2024/04/07 03:05:48;;;;;;;4.72;0.60;;;;;;;;;;5124395;27;20063;-75
2024/04/07 03:08:17;;;;;;;2.20;0.45;;;;;;;;;;5124527;27;20078;-74
2024/04/07 03:10:56;;;;;;;5.40;0.60;;;;;;;;;;5124408;27;20043;-75
2024/04/07 03:13:25;;;;;;;5.35;0.55;;;;;;;;;;5124203;27;20039;-74
2024/04/07 03:15:54;;;;;;;0.75;0.50;;;;;;;;;;5124865;27;20054;-75
2024/04/07 03:18:23;;;;;;;2.55;0.55;;;;;;;;;;5123803;27;20832;-73
2024/04/07 03:20:52;;;;;;;2.90;0.43;;;;;;;;;;5124218;27;20046;-75
2024/04/07 03:23:20;;;;;;;2.50;0.73;;;;;;;;;;5107503;27;20051;-74
2024/04/07 03:25:49;;;;;;;0.43;0.30;;;;;;;;;;5124121;27;20047;-74
2024/04/07 03:28:17;;;;;;;1.98;0.30;;;;;;;;;;5123904;27;20501;-74
2024/04/07 03:30:45;;;;;;;3.38;0.47;;;;;;;;;;5124081;27;20527;-75
2024/04/07 03:33:16;;;;;;;1.52;0.45;;;;;;;;;;5107985;27;20059;-72
2024/04/07 03:35:45;;;;;;;2.05;0.50;;;;;;;;;;5124810;27;20520;-74
2024/04/07 03:38:13;;;;;;;3.78;0.50;;;;;;;;;;5124220;27;20046;-73
2024/04/07 03:40:42;;;;;;;2.15;0.60;;;;;;;;;;5124209;27;20057;-73
2024/04/07 03:43:16;;;;;;;1.92;0.63;;;;;;;;;;5124126;27;20205;-75
2024/04/07 03:45:44;;;;;;;3.53;1.13;;;;;;;;;;5124421;27;20038;-75
2024/04/07 03:48:15;;;;;;;3.30;0.90;;;;;;;;;;5124891;27;20389;-73
2024/04/07 03:50:44;;;;;;;3.28;0.73;;;;;;;;;;5124709;27;20046;-75
2024/04/07 03:53:12;;;;;;;3.45;0.90;;;;;;;;;;5124448;27;20039;-76
2024/04/07 03:55:41;;;;;;;1.40;0.80;;;;;;;;;;5107141;27;20549;-75
2024/04/07 03:58:09;;;;;;;5.30;0.80;;;;;;;;;;5123399;27;20050;-72
2024/04/07 04:00:39;;;;;;;2.95;0.93;;;;;;;;;;5123893;27;20043;-74
2024/04/07 04:03:08;;;;;;;3.83;1.10;;;;;;;;;;5106277;27;20051;-76
2024/04/07 04:05:37;;;;;;;6.10;1.10;;;;;;;;;;5123736;27;20047;-73
2024/04/07 04:08:05;;;;;;;2.35;1.02;;;;;;;;;;5123869;27;20477;-74
2024/04/07 04:10:38;;;;;;;0.93;0.82;;;;;;;;;;5123473;27;20043;-75
2024/04/07 04:13:07;;;;;;;2.60;0.80;;;;;;;;;;5106957;27;20176;-72
2024/04/07 04:15:38;;;;;;;3.22;0.90;;;;;;;;;;5123524;27;20043;-74
2024/04/07 04:18:08;;;;;;;1.52;0.82;;;;;;;;;;5123552;27;20054;-74
2024/04/07 04:20:40;;;;;;;2.83;0.98;;;;;;;;;;5123555;27;20050;-74
2024/04/07 04:23:08;;;;;;;2.92;1.42;;;;;;;;;;5124397;27;20046;-73
2024/04/07 04:25:38;;;;;;;4.18;1.20;;;;;;;;;;5124452;27;20424;-75
2024/04/07 04:28:07;;;;;;;7.25;1.48;;;;;;;;;;5123289;27;20042;-72
2024/04/07 04:30:35;;;;;;;4.72;1.35;;;;;;;;;;5123367;27;20058;-74
2024/04/07 04:33:04;;;;;;;2.55;1.40;;;;;;;;;;5123281;27;20036;-72
2024/04/07 04:35:35;;;;;;;8.05;1.70;;;;;;;;;;5122779;27;20054;-75
2024/04/07 04:38:04;;;;;;;2.92;1.55;;;;;;;;;;5122559;27;20054;-76
2024/04/07 04:40:32;;;;;;;;;;;;;;;;;;5123266;27;20397;-75
2024/04/07 04:43:01;;;;;;;5.18;1.60;;;;;;;;;;5122807;27;19931;-73
2024/04/07 04:45:30;;;;;;;4.38;2.15;;;;;;;;;;5122600;27;20058;-73
2024/04/07 04:47:58;;;;;;;4.93;1.55;;;;;;;;;;5123089;27;20047;-74
2024/04/07 04:50:27;;;;;;;3.75;1.77;;;;;;;;;;5122857;27;20402;-73
2024/04/07 04:52:55;;;;;;;6.65;2.20;;;;;;;;;;5122746;27;20401;-73
2024/04/07 04:55:24;;;;;;;3.97;2.13;;;;;;;;;;5105874;27;20046;-73
2024/04/07 04:57:52;;;;;;;5.90;2.17;;;;;;;;;;5105847;27;20425;-75
2024/04/07 05:00:20;;;;;;;3.88;2.10;;;;;;;;;;5105584;27;20050;-74
2024/04/07 05:02:50;;;;;;;3.40;2.08;;;;;;;;;;5122443;27;20058;-74
2024/04/07 05:05:18;;;;;;;3.80;2.30;;;;;;;;;;5123185;27;20043;-74
2024/04/07 05:07:47;;;;;;;5.72;2.05;;;;;;;;;;5123103;27;20046;-74
2024/04/07 05:10:15;;;;;;;4.65;2.10;;;;;;;;;;5122203;27;20069;-73
2024/04/07 05:12:44;;;;;;;5.43;2.50;;;;;;;;;;5122205;27;20039;-73
2024/04/07 05:15:12;;;;;;;3.28;2.35;;;;;;;;;;5122939;27;20054;-74
2024/04/07 05:17:41;;;;;;;3.60;2.30;;;;;;;;;;5122186;27;20054;-72
2024/04/07 05:20:11;;;;;;;3.30;2.33;;;;;;;;;;5121661;27;20046;-74
2024/04/07 05:22:40;;;;;;;4.60;2.65;;;;;;;;;;5122378;27;20061;-74
2024/04/07 05:25:09;;;;;;;6.68;2.90;;;;;;;;;;5122046;27;20043;-72
2024/04/07 05:27:37;;;;;;;6.30;2.80;;;;;;;;;;5105443;27;20489;-73
2024/04/07 05:30:06;;;;;;;5.90;2.85;;;;;;;;;;5121991;27;20046;-74
2024/04/07 05:32:35;;;;;;;;;;;;;;;;;;5122687;27;20046;-73
2024/04/07 05:35:06;;;;;;;;;;;;;;;;;;5122284;27;19927;-75
2024/04/07 05:37:34;;;;;;;4.20;2.67;;;;;;;;;;5122069;27;19923;-75
2024/04/07 05:40:05;;;;;;;6.15;2.83;;;;;;;;;;5122154;27;20050;-75
2024/04/07 05:42:33;;;;;;;5.55;3.38;;;;;;;;;;5122174;27;20413;-72
2024/04/07 05:45:03;;;;;;;7.75;3.22;;;;;;;;;;5122487;27;20039;-74
2024/04/07 05:47:31;;;;;;;5.60;2.70;;;;;;;;;;5121975;27;20050;-74
2024/04/07 05:50:00;;;;;;;5.38;3.10;;;;;;;;;;5121278;27;20047;-75
2024/04/07 05:52:31;;;;;;;8.38;2.85;;;;;;;;;;5121493;27;20047;-73
2024/04/07 05:55:00;;;;;;;5.60;2.50;;;;;;;;;;5121613;27;20047;-73
2024/04/07 05:57:28;;;;;;;7.20;3.05;;;;;;;;;;5121651;27;20035;-75
2024/04/07 05:59:56;;;;;;;4.78;2.70;;;;;;;;;;5121890;27;20043;-73
2024/04/07 06:02:26;;;;;;;5.43;3.10;;;;;;;;;;5121530;27;20047;-75
2024/04/07 06:04:55;;;;;;;5.18;3.13;;;;;;;;;;5122208;27;20061;-73
2024/04/07 06:07:23;;;;;;;10.82;3.60;;;;;;;;;;5121856;27;20409;-74
2024/04/07 06:09:51;;;;;;;5.75;3.42;;;;;;;;;;5121417;28;20051;-72
2024/04/07 06:12:23;;;;;;;6.05;2.67;;;;;;;;;;5121724;28;20749;-74
2024/04/07 06:14:51;;;;;;;6.53;3.20;;;;;;;;;;5122074;28;20050;-74
2024/04/07 06:17:21;;;;;;;6.15;2.90;;;;;;;;;;5121524;28;20050;-76
2024/04/07 06:19:51;;;;;;;5.93;2.83;;;;;;;;;;5121749;28;20063;-72
2024/04/07 06:22:19;;;;;;;7.35;2.80;;;;;;;;;;5121533;28;20047;-75
2024/04/07 06:24:48;;;;;;;7.32;2.95;;;;;;;;;;5121514;28;20044;-75
2024/04/07 06:27:16;;;;;;;4.82;2.88;;;;;;;;;;5121928;28;20046;-75
2024/04/07 06:29:44;;;;;;;5.25;3.15;;;;;;;;;;5104315;28;20412;-75
2024/04/07 06:32:14;;;;;;;6.38;2.80;;;;;;;;;;5121778;27;20073;-75
2024/04/07 06:34:42;;;;;;;5.35;3.08;;;;;;;;;;5121764;27;20047;-74
2024/04/07 06:37:10;;;;;;;7.85;3.40;;;;;;;;;;5104135;28;20054;-74
2024/04/07 06:39:38;;;;;;;5.90;2.90;;;;;;;;;;5121330;28;20051;-77
2024/04/07 06:42:07;;;;;;;5.07;3.03;;;;;;;;;;5120959;27;20108;-71
2024/04/07 06:44:35;;;;;;;5.22;2.95;;;;;;;;;;5121098;28;20046;-72
2024/04/07 06:47:06;;;;;;;5.57;2.95;;;;;;;;;;5121150;28;20047;-74
2024/04/07 06:49:35;;;;;;;5.35;3.33;;;;;;;;;;5121637;27;20113;-75
2024/04/07 06:52:03;;;;;;;5.53;3.50;;;;;;;;;;5121050;28;20051;-71
2024/04/07 06:54:32;;;;;;;5.60;3.33;;;;;;;;;;5121009;28;20047;-74
2024/04/07 06:57:01;;;;;;;6.88;2.85;;;;;;;;;;5121170;28;20043;-74
2024/04/07 06:59:29;;;;;;;4.65;2.97;;;;;;;;;;5121295;27;20061;-74
2024/04/07 07:01:57;;;;;;;7.63;3.72;;;;;;;;;;5122475;27;20035;-72
2024/04/07 07:04:26;;;;;;;5.05;3.10;;;;;;;;;;5125336;27;20050;-74
2024/04/07 07:06:54;;;;;;;4.57;3.35;;;;;;;;;;5125287;27;20055;-75
2024/04/07 07:09:24;;;;;;;6.57;3.25;;;;;;;;;;5124863;27;20058;-74
2024/04/07 07:11:52;;;;;;;7.07;3.20;;;;;;;;;;5125208;27;20043;-74
2024/04/07 07:14:20;;;;;;;7.75;3.10;;;;;;;;;;5124857;27;20062;-75
2024/04/07 07:16:48;;;;;;;9.02;3.55;;;;;;;;;;5125156;27;20043;-73
2024/04/07 07:19:19;;;;;;;5.88;2.83;;;;;;;;;;5124484;27;20039;-72
2024/04/07 07:21:47;;;;;;;3.67;2.70;;;;;;;;;;5124918;27;20043;-75
2024/04/07 07:24:16;;;;;;;6.32;3.08;;;;;;;;;;5107610;27;20054;-76
2024/04/07 07:26:44;;;;;;;7.15;3.60;;;;;;;;;;5125102;27;20046;-74
2024/04/07 07:29:13;;;;;;;3.65;2.50;;;;;;;;;;5123758;27;20497;-76
2024/04/07 07:31:41;;;;;;;5.25;3.13;;;;;;;;;;5124327;27;20047;-73
2024/04/07 07:34:10;;;;;;;4.13;2.63;;;;;;;;;;5124340;27;20035;-72
2024/04/07 07:36:38;;;;;;;9.43;2.85;;;;;;;;;;5124003;27;20046;-72
2024/04/07 07:39:07;;;;;;;4.20;2.53;;;;;;;;;;5124300;27;20047;-75
2024/04/07 07:41:35;;;;;;;7.55;3.10;;;;;;;;;;5124090;27;20043;-74
2024/04/07 07:44:03;;;;;;;4.80;2.95;;;;;;;;;;5124153;27;20054;-73
2024/04/07 07:46:32;;;;;;;4.85;2.80;;;;;;;;;;5107296;27;20401;-72
2024/04/07 07:49:02;;;;;;;5.65;2.45;;;;;;;;;;5124238;27;20039;-74
2024/04/07 07:51:30;;;;;;;6.95;2.40;;;;;;;;;;5124423;27;20409;-75
2024/04/07 07:53:58;;;;;;;5.50;2.45;;;;;;;;;;5124279;27;20642;-75
2024/04/07 07:56:26;;;;;;;4.40;2.30;;;;;;;;;;5124210;27;20050;-75
2024/04/07 07:58:55;;;;;;;4.55;2.50;;;;;;;;;;5124217;27;20039;-76
2024/04/07 08:01:23;;;;;;;6.63;2.10;;;;;;;;;;5106932;27;20051;-73
2024/04/07 08:03:53;;;;;;;3.13;1.98;;;;;;;;;;5124297;27;20061;-73
2024/04/07 08:06:21;;;;;;;5.60;2.20;;;;;;;;;;5123534;27;20412;-72
2024/04/07 08:08:50;;;;;;;5.45;1.85;;;;;;;;;;5123996;27;20055;-74
2024/04/07 08:11:18;;;;;;;2.63;2.10;;;;;;;;;;5123749;27;20050;-74
2024/04/07 08:13:47;;;;;;;4.65;1.60;;;;;;;;;;5122985;27;20046;-76
2024/04/07 08:16:16;;;;;;;3.20;1.90;;;;;;;;;;5123530;27;20050;-74
2024/04/07 08:18:44;;;;;;;2.72;1.40;;;;;;;;;;5123522;27;20707;-74
2024/04/07 08:21:13;;;;;;;2.45;1.42;;;;;;;;;;5123421;27;20035;-73
2024/04/07 08:23:41;;;;;;;3.72;1.80;;;;;;;;;;5123236;27;20046;-75
2024/04/07 08:26:09;;;;;;;3.78;1.55;;;;;;;;;;5123913;27;20043;-74
2024/04/07 08:28:38;;;;;;;1.45;1.33;;;;;;;;;;5123318;27;20505;-76
2024/04/07 08:31:07;;;;;;;4.20;1.50;;;;;;;;;;5123208;27;20043;-75
2024/04/07 08:33:35;;;;;;;1.85;1.15;;;;;;;;;;5121860;27;20043;-73
2024/04/07 08:36:03;;;;;;;1.27;1.17;;;;;;;;;;5103768;27;20062;-75
2024/04/07 08:38:32;;;;;;;1.85;1.30;;;;;;;;;;5120146;27;20050;-75
2024/04/07 08:41:00;;;;;;;1.75;1.20;;;;;;;;;;5120418;27;20697;-72
2024/04/07 08:43:29;;;;;;;2.10;1.13;;;;;;;;;;5119988;27;20497;-72
2024/04/07 08:45:58;;;;;;;1.55;1.10;;;;;;;;;;5120578;27;20043;-77
2024/04/07 08:48:27;;;;;;;3.75;1.27;;;;;;;;;;5120725;27;20039;-72
2024/04/07 08:50:56;;;;;;;2.67;1.35;;;;;;;;;;5119738;27;20047;-75
2024/04/07 08:53:24;;;;;;;4.07;1.35;;;;;;;;;;5119883;27;20147;-75
2024/04/07 08:55:52;;;;;;;1.63;0.80;;;;;;;;;;5119616;27;20047;-74
2024/04/07 08:58:21;;;;;;;2.47;1.00;;;;;;;;;;5119499;27;20474;-74
2024/04/07 09:00:53;;;;;;;4.40;1.10;;;;;;;;;;5120086;27;20047;-74
2024/04/07 09:03:21;;;;;;;2.10;1.20;;;;;;;;;;5119673;27;20047;-73
2024/04/07 09:05:49;;;;;;;1.52;1.00;;;;;;;;;;5119622;27;20055;-75
2024/04/07 09:08:18;;;;;;;1.17;0.90;;;;;;;;;;5119422;27;20055;-74
2024/04/07 09:10:46;;;;;;;1.65;0.95;;;;;;;;;;5119524;27;20036;-74
2024/04/07 09:13:19;;;;;;;1.67;1.20;;;;;;;;;;5119521;27;20390;-73
2024/04/07 09:15:47;;;;;;;2.33;0.95;;;;;;;;;;5119373;27;20051;-74
2024/04/07 09:18:20;;;;;;;4.07;1.25;;;;;;;;;;5119430;27;20497;-74
2024/04/07 09:20:50;;;;;;;2.55;1.30;;;;;;;;;;5118815;27;20047;-72
2024/04/07 09:23:19;;;;;;;5.05;1.10;;;;;;;;;;5119124;27;20502;-74
2024/04/07 09:25:53;;;;;;;5.95;1.73;;;;;;;;;;5101681;27;20627;-76
2024/04/07 09:28:22;;;;;;;5.22;1.77;;;;;;;;;;5103121;27;20042;-77
2024/04/07 09:30:50;;;;;;;3.88;1.30;;;;;;;;;;5104877;27;20051;-76
2024/04/07 09:33:20;;;;;;;4.13;1.13;;;;;;;;;;5121105;27;20051;-77
2024/04/07 09:35:49;;;;;;;2.40;1.10;;;;;;;;;;5120489;27;20054;-75
2024/04/07 09:38:17;;;;;;;4.30;1.40;;;;;;;;;;5119223;27;20772;-75
2024/04/07 09:40:47;;;;;;;4.40;1.20;;;;;;;;;;5118816;27;20159;-74
2024/04/07 09:43:16;;;;;;;2.20;1.17;;;;;;;;;;5102807;27;20054;-75
2024/04/07 09:45:48;;;;;;;3.95;0.98;;;;;;;;;;5118639;27;20047;-74
2024/04/07 09:48:20;;;;;;;4.45;1.40;;;;;;;;;;5102332;27;20532;-73
2024/04/07 09:51:10;;;;;;;2.05;0.90;;;;;;;;;;5102687;27;20065;-76
2024/04/07 09:53:56;;;;;;;2.45;1.20;;;;;;;;;;5118852;27;20051;-74
2024/04/07 09:56:32;;;;;;;2.30;1.23;;;;;;;;;;5118769;27;21102;-75
2024/04/07 09:59:02;;;;;;;1.90;1.17;;;;;;;;;;5119054;27;20051;-76
2024/04/07 10:01:30;;;;;;;5.18;1.40;;;;;;;;;;5118976;27;20054;-74
2024/04/07 10:04:02;;;;;;;3.50;1.27;;;;;;;;;;5102310;28;20043;-75
2024/04/07 10:06:32;;;;;;;3.63;1.30;;;;;;;;;;5118490;27;20050;-74
2024/04/07 10:09:02;;;;;;;6.60;1.40;;;;;;;;;;5118332;28;20054;-76
2024/04/07 10:11:31;;;;;;;4.57;1.52;;;;;;;;;;5118796;28;20043;-76
2024/04/07 10:14:00;;;;;;;5.28;1.50;;;;;;;;;;5118720;28;20049;-76
2024/04/07 10:16:28;;;;;;;;;;;;;;;;;;5119881;27;20066;-74
2024/04/07 10:18:59;;;;;;;8.93;1.40;;;;;;;;;;5101730;28;19930;-76
2024/04/07 10:21:28;;;;;;;6.82;1.90;;;;;;;;;;5119216;27;20058;-74
2024/04/07 10:23:57;;;;;;;4.97;1.55;;;;;;;;;;5118905;27;20047;-75
2024/04/07 10:26:29;;;;;;;2.15;1.42;;;;;;;;;;5118930;27;20051;-76
2024/04/07 10:28:57;;;;;;;7.13;1.83;;;;;;;;;;5118668;28;20042;-75
2024/04/07 10:31:29;;;;;;;3.85;2.25;;;;;;;;;;5118307;28;20054;-75
2024/04/07 10:33:58;;;;;;;4.10;2.00;;;;;;;;;;5118217;28;20039;-74
2024/04/07 10:36:27;;;;;;;5.28;2.22;;;;;;;;;;5120306;27;20043;-80
2024/04/07 10:38:58;;;;;;;6.53;2.30;;;;;;;;;;5122966;27;20043;-75
2024/04/07 10:41:30;;;;;;;8.00;2.08;;;;;;;;;;5122541;27;20050;-75
2024/04/07 10:44:01;;;;;;;5.97;3.40;;;;;;;;;;5122012;27;20054;-76
2024/04/07 10:46:32;;;;;;;6.90;3.20;;;;;;;;;;5122342;27;20050;-75
2024/04/07 10:49:02;;;;;;;4.18;2.60;;;;;;;;;;5122055;27;20634;-76
2024/04/07 10:51:33;;;;;;;7.75;2.38;;;;;;;;;;5105989;27;20047;-75
2024/04/07 10:54:06;;;;;;;7.97;2.92;;;;;;;;;;5122563;27;20611;-78
2024/04/07 10:56:35;;;;;;;3.47;2.30;;;;;;;;;;5122723;27;20058;-77
2024/04/07 10:59:04;;;;;;;6.38;2.30;;;;;;;;;;5122219;27;20054;-76
2024/04/07 11:01:33;;;;;;;5.50;2.42;;;;;;;;;;5122828;27;20046;-76
2024/04/07 11:04:01;;;;;;;5.05;2.60;;;;;;;;;;5121935;27;20156;-76
2024/04/07 11:06:30;;;;;;;4.95;2.15;;;;;;;;;;5122121;27;20043;-76
2024/04/07 11:09:00;;;;;;;5.07;2.38;;;;;;;;;;5121743;27;20054;-75
2024/04/07 11:11:29;;;;;;;3.63;2.60;;;;;;;;;;5121532;27;20047;-75
2024/04/07 11:13:58;;;;;;;5.30;2.88;;;;;;;;;;5122163;27;20051;-76
2024/04/07 11:16:27;;;;;;;18.10;3.45;;;;;;;;;;5122555;27;20039;-76
2024/04/07 11:18:58;;;;;;;4.15;2.75;;;;;;;;;;5122078;27;20055;-77
2024/04/07 11:21:28;;;;;;;5.97;2.72;;;;;;;;;;5122140;27;20049;-75
2024/04/07 11:23:58;;;;;;;4.70;2.60;;;;;;;;;;5104623;27;20552;-77
2024/04/07 11:26:27;;;;;;;7.05;2.20;;;;;;;;;;5121641;27;20528;-75
2024/04/07 11:28:55;;;;;;;3.08;2.05;;;;;;;;;;5121937;27;20043;-80
2024/04/07 11:31:26;;;;;;;5.85;2.33;;;;;;;;;;5121579;27;20054;-76
2024/04/07 11:33:54;;;;;;;7.15;2.00;;;;;;;;;;5104703;27;20047;-76
2024/04/07 11:36:23;;;;;;;3.20;1.70;;;;;;;;;;5121358;27;20047;-73
2024/04/07 11:38:51;;;;;;;2.65;1.48;;;;;;;;;;5122221;27;20046;-77
2024/04/07 11:41:20;;;;;;;3.53;1.50;;;;;;;;;;5122026;27;20034;-74
2024/04/07 11:43:53;;;;;;;3.22;1.42;;;;;;;;;;5121594;27;20039;-76
2024/04/07 11:46:22;;;;;;;2.85;1.48;;;;;;;;;;5121748;27;20042;-75
2024/04/07 11:48:50;;;;;;;3.10;1.42;;;;;;;;;;5120467;27;20519;-78
2024/04/07 11:51:19;;;;;;;5.10;1.63;;;;;;;;;;5104554;27;20047;-73
2024/04/07 11:53:48;;;;;;;3.08;1.35;;;;;;;;;;5086629;27;20059;-74
2024/04/07 11:56:17;;;;;;;2.20;1.30;;;;;;;;;;5121574;27;20050;-76
2024/04/07 11:58:45;;;;;;;3.05;1.55;;;;;;;;;;5121384;27;20391;-74
2024/04/07 12:01:14;;;;;;;3.40;1.25;;;;;;;;;;5103294;27;20771;-76
2024/04/07 12:03:42;;;;;;;1.50;1.20;;;;;;;;;;5120514;27;20043;-73
2024/04/07 12:06:11;;;;;;;2.65;1.30;;;;;;;;;;5118749;27;20047;-76
2024/04/07 12:08:40;;;;;;;2.72;1.40;;;;;;;;;;5119028;27;20051;-75
2024/04/07 12:11:09;;;;;;;2.35;1.08;;;;;;;;;;5119751;27;20461;-77
2024/04/07 12:13:37;;;;;;;3.25;1.27;;;;;;;;;;5120629;27;20038;-76
2024/04/07 12:16:06;;;;;;;3.08;0.93;;;;;;;;;;5104339;27;20066;-74
2024/04/07 12:18:34;;;;;;;1.77;1.08;;;;;;;;;;5121226;27;20058;-75
2024/04/07 12:21:04;;;;;;;2.40;0.98;;;;;;;;;;5104310;27;20054;-77
2024/04/07 12:23:32;;;;;;;2.80;1.30;;;;;;;;;;5121170;27;20047;-74
2024/04/07 12:26:02;;;;;;;0.80;0.80;;;;;;;;;;5120558;27;20051;-74
2024/04/07 12:28:30;;;;;;;1.30;0.82;;;;;;;;;;5120429;27;20043;-74
2024/04/07 12:30:59;;;;;;;0.85;0.70;;;;;;;;;;5104016;27;20039;-75
2024/04/07 12:33:27;;;;;;;2.45;0.80;;;;;;;;;;5120602;27;20043;-73
2024/04/07 12:35:56;;;;;;;1.33;0.75;;;;;;;;;;5119964;27;20047;-74
2024/04/07 12:38:24;;;;;;;3.30;1.40;;;;;;;;;;5103399;27;20047;-75
2024/04/07 12:40:55;;;;;;;4.65;0.90;;;;;;;;;;5102940;27;20047;-73
2024/04/07 12:43:23;;;;;;;1.98;1.00;;;;;;;;;;5102282;27;20062;-74
2024/04/07 12:45:51;;;;;;;4.32;1.00;;;;;;;;;;5103291;27;20043;-75
2024/04/07 12:48:20;;;;;;;1.20;1.10;;;;;;;;;;5120501;27;20421;-75
2024/04/07 12:50:49;;;;;;;2.45;0.90;;;;;;;;;;5120881;27;20043;-75
2024/04/07 12:53:18;;;;;;;2.15;0.90;;;;;;;;;;5119750;27;20050;-74
2024/04/07 12:55:47;;;;;;;2.70;1.42;;;;;;;;;;5119834;27;20076;-76
2024/04/07 12:58:15;;;;;;;3.00;1.00;;;;;;;;;;5120401;27;20422;-73
2024/04/07 13:00:44;;;;;;;1.58;0.75;;;;;;;;;;5118788;27;20498;-76
2024/04/07 13:03:15;;;;;;;1.58;0.90;;;;;;;;;;5119766;27;20054;-75
2024/04/07 13:05:43;;;;;;;1.80;0.80;;;;;;;;;;5120119;27;20047;-74
2024/04/07 13:08:15;;;;;;;2.95;0.85;;;;;;;;;;5120026;27;20035;-74
2024/04/07 13:10:45;;;;;;;0.90;0.70;;;;;;;;;;5120201;27;20082;-75
2024/04/07 13:13:13;;;;;;;0.70;0.70;;;;;;;;;;5119552;27;20047;-73
2024/04/07 13:15:43;;;;;;;8.23;1.23;;;;;;;;;;5120086;27;20043;-76
2024/04/07 13:18:11;;;;;;;1.98;0.82;;;;;;;;;;5118992;27;20058;-74
2024/04/07 13:20:40;;;;;;;1.60;1.30;;;;;;;;;;5119353;27;20953;-74
2024/04/07 13:23:08;;;;;;;2.75;1.27;;;;;;;;;;5101923;27;20665;-76
2024/04/07 13:25:37;;;;;;;2.85;1.33;;;;;;;;;;5119176;27;20047;-80
2024/04/07 13:28:08;;;;;;;3.40;0.93;;;;;;;;;;5118932;27;20050;-75
2024/04/07 13:30:38;;;;;;;4.72;0.90;;;;;;;;;;5119051;27;20054;-74
2024/04/07 13:33:07;;;;;;;2.35;1.02;;;;;;;;;;5102670;27;20520;-75
2024/04/07 13:35:36;;;;;;;1.02;0.65;;;;;;;;;;5102190;27;20055;-75
2024/04/07 13:38:05;;;;;;;3.33;1.15;;;;;;;;;;5119465;27;20039;-74
2024/04/07 13:40:33;;;;;;;1.52;1.00;;;;;;;;;;5119277;27;20146;-76
2024/04/07 13:43:02;;;;;;;3.80;1.58;;;;;;;;;;5118901;27;20042;-73
2024/04/07 13:45:31;;;;;;;3.28;2.20;;;;;;;;;;5119135;27;20755;-75
2024/04/07 13:47:59;;;;;;;4.10;1.98;;;;;;;;;;5120180;27;20054;-77
2024/04/07 13:50:29;;;;;;;;;;;;;;;;;;5122528;27;20047;-75
2024/04/07 13:52:57;;;;;;;4.30;1.20;;;;;;;;;;5122076;27;20309;-73
2024/04/07 13:55:25;;;;;;;0.80;0.70;;;;;;;;;;5121364;27;20043;-76
2024/04/07 13:57:53;;;;;;;1.48;0.90;;;;;;;;;;5121176;27;20051;-75
2024/04/07 14:00:22;;;;;;;1.27;0.93;;;;;;;;;;5121998;27;20043;-73
2024/04/07 14:02:51;;;;;;;1.13;0.85;;;;;;;;;;5121506;27;20043;-76
2024/04/07 14:05:20;;;;;;;2.45;1.10;;;;;;;;;;5121881;27;20043;-76
2024/04/07 14:07:48;;;;;;;1.17;0.85;;;;;;;;;;5121738;28;20051;-73
2024/04/07 14:10:17;;;;;;;0.95;0.70;;;;;;;;;;5121316;27;20051;-77
2024/04/07 14:12:45;;;;;;;1.83;0.60;;;;;;;;;;5121665;28;20043;-75
2024/04/07 14:15:14;;;;;;;2.65;0.80;;;;;;;;;;5104366;28;20046;-74
2024/04/07 14:17:42;;;;;;;1.00;0.68;;;;;;;;;;5104207;28;20043;-73
2024/04/07 14:20:11;;;;;;;1.48;0.95;;;;;;;;;;5121301;28;20043;-74
2024/04/07 14:22:39;;;;;;;0.60;0.60;;;;;;;;;;5121713;28;20439;-74
2024/04/07 14:25:08;;;;;;;2.60;0.68;;;;;;;;;;5122289;28;20035;-74
2024/04/07 14:27:36;;;;;;;0.65;0.60;;;;;;;;;;5121828;28;20046;-74
2024/04/07 14:30:05;;;;;;;0.63;0.60;;;;;;;;;;5104403;28;20043;-75
2024/04/07 14:32:34;;;;;;;4.72;0.80;;;;;;;;;;5122040;28;20039;-74
2024/04/07 14:35:03;;;;;;;0.85;0.80;;;;;;;;;;5121048;28;20043;-74
2024/04/07 14:37:31;;;;;;;2.28;0.80;;;;;;;;;;5120928;28;20057;-75
2024/04/07 14:40:00;;;;;;;1.17;0.90;;;;;;;;;;5121093;28;20039;-75
2024/04/07 14:42:28;;;;;;;1.33;0.88;;;;;;;;;;5121630;28;20043;-74
2024/04/07 14:44:58;;;;;;;0.80;0.70;;;;;;;;;;5120811;28;20031;-74
2024/04/07 14:47:26;;;;;;;7.68;0.88;;;;;;;;;;5121202;28;20047;-74
2024/04/07 14:49:55;;;;;;;1.10;0.70;;;;;;;;;;5120957;27;20493;-76
2024/04/07 14:52:23;;;;;;;4.15;0.88;;;;;;;;;;5121906;28;20035;-74
2024/04/07 14:54:52;;;;;;;1.45;0.75;;;;;;;;;;5121378;28;20051;-75
2024/04/07 14:57:21;;;;;;;3.75;0.63;;;;;;;;;;5121569;28;20054;-77
2024/04/07 14:59:49;;;;;;;2.60;0.65;;;;;;;;;;5103833;28;20058;-75